Time;durP1;ratioP1;P1;durP2;ratioP2;P2;SDS_P1;SDS_P2;PMS_P1;PMS_P2;Temp;Humidity;BMP_temperature;BMP_pressure;BME280_temperature;BME280_humidity;BME280_pressure;Samples;Min_cycle;Max_cycle;Signal;HPM_P1;HPM_P2
2023/09/15 00:04:13;;;;;;;10.77;9.13;;;;;;;;;;10084904;28;20053;-79
2023/09/15 00:09:08;;;;;;;10.23;9.30;;;;;;;;;;10081137;28;20044;-79
2023/09/15 00:14:00;;;;;;;13.02;10.30;;;;;;;;;;10122489;28;20114;-78
2023/09/15 00:18:52;;;;;;;11.00;9.65;;;;;;;;;;10089788;28;20065;-79
2023/09/15 00:23:43;;;;;;;12.48;9.13;;;;;;;;;;10145650;28;20041;-78
2023/09/15 00:28:36;;;;;;;10.00;8.27;;;;;;;;;;10093042;28;20129;-79
2023/09/15 00:33:28;;;;;;;10.90;8.30;;;;;;;;;;10047729;28;20046;-79
2023/09/15 00:38:21;;;;;;;9.70;8.80;;;;;;;;;;10091930;28;20611;-79
2023/09/15 00:43:14;;;;;;;13.60;8.27;;;;;;;;;;10048208;28;20084;-78
2023/09/15 00:48:07;;;;;;;9.98;9.00;;;;;;;;;;10089661;28;20713;-78
2023/09/15 00:53:04;;;;;;;11.20;8.38;;;;;;;;;;10072601;28;20056;-78
2023/09/15 00:57:57;;;;;;;8.65;7.85;;;;;;;;;;10064516;28;20041;-77
2023/09/15 01:02:50;;;;;;;10.02;8.07;;;;;;;;;;10088093;28;20390;-79
2023/09/15 01:07:43;;;;;;;10.48;9.15;;;;;;;;;;10045448;28;20368;-78
2023/09/15 01:12:35;;;;;;;14.02;9.45;;;;;;;;;;10046190;28;20048;-79
2023/09/15 01:17:35;;;;;;;11.95;9.07;;;;;;;;;;10063216;28;20077;-79
2023/09/15 01:22:48;;;;;;;13.45;8.88;;;;;;;;;;10046168;28;20048;-79
2023/09/15 01:28:19;;;;;;;13.27;10.07;;;;;;;;;;10063379;28;20053;-79
2023/09/15 01:33:13;;;;;;;13.25;11.77;;;;;;;;;;10045656;28;20128;-79
2023/09/15 01:38:05;;;;;;;17.58;10.45;;;;;;;;;;10044641;28;20132;-78
2023/09/15 01:42:57;;;;;;;15.25;10.52;;;;;;;;;;10075688;28;20048;-78
2023/09/15 01:47:49;;;;;;;15.85;11.40;;;;;;;;;;10045503;28;20045;-78
2023/09/15 01:52:42;;;;;;;18.83;10.65;;;;;;;;;;10071220;28;20075;-79
2023/09/15 01:57:33;;;;;;;15.18;11.45;;;;;;;;;;10068614;28;20029;-79
2023/09/15 02:02:25;;;;;;;13.88;12.05;;;;;;;;;;10066473;28;20072;-79
2023/09/15 02:07:17;;;;;;;18.17;12.10;;;;;;;;;;10074821;28;20072;-79
2023/09/15 02:12:09;;;;;;;16.15;13.60;;;;;;;;;;10070091;28;20386;-78
2023/09/15 02:17:02;;;;;;;19.45;12.93;;;;;;;;;;10087122;28;20048;-79
2023/09/15 02:21:54;;;;;;;18.65;15.20;;;;;;;;;;10124622;28;20045;-79
2023/09/15 02:26:47;;;;;;;17.60;13.32;;;;;;;;;;10082532;28;20448;-80
2023/09/15 02:31:40;;;;;;;14.85;12.40;;;;;;;;;;10061075;28;20095;-79
2023/09/15 02:36:32;;;;;;;15.98;12.98;;;;;;;;;;10087616;28;20040;-80
2023/09/15 02:41:24;;;;;;;21.00;15.32;;;;;;;;;;10068132;28;20053;-79
2023/09/15 02:46:16;;;;;;;17.70;15.73;;;;;;;;;;10050507;28;20080;-78
2023/09/15 02:51:09;;;;;;;23.25;16.08;;;;;;;;;;10052807;28;20467;-79
2023/09/15 02:56:04;;;;;;;21.42;15.95;;;;;;;;;;10070419;28;20052;-79
2023/09/15 03:01:11;;;;;;;24.42;15.63;;;;;;;;;;10115654;28;20132;-77
2023/09/15 03:06:04;;;;;;;20.00;16.67;;;;;;;;;;10066960;28;20045;-78
2023/09/15 03:10:59;;;;;;;16.73;14.32;;;;;;;;;;10051366;28;20049;-79
2023/09/15 03:15:51;;;;;;;20.17;18.05;;;;;;;;;;10126638;28;20092;-78
2023/09/15 03:20:44;;;;;;;17.42;15.27;;;;;;;;;;10076841;28;20088;-80
2023/09/15 03:25:36;;;;;;;23.88;16.50;;;;;;;;;;10078197;28;20060;-80
2023/09/15 03:30:28;;;;;;;24.02;16.95;;;;;;;;;;10114350;28;20121;-79
2023/09/15 03:35:20;;;;;;;17.60;15.80;;;;;;;;;;10099874;28;20459;-78
2023/09/15 03:40:12;;;;;;;22.20;18.20;;;;;;;;;;10109233;28;20059;-79
2023/09/15 03:45:08;;;;;;;19.73;17.60;;;;;;;;;;10087494;28;20051;-78
2023/09/15 03:50:01;;;;;;;20.27;15.27;;;;;;;;;;10052235;28;20042;-79
2023/09/15 03:55:00;;;;;;;19.33;14.88;;;;;;;;;;10054979;28;20330;-79
2023/09/15 03:59:53;;;;;;;19.38;14.02;;;;;;;;;;10132626;28;20456;-79
2023/09/15 04:04:45;;;;;;;20.25;12.98;;;;;;;;;;10095297;28;20040;-80
2023/09/15 04:09:36;;;;;;;15.80;13.45;;;;;;;;;;10067627;28;20037;-78
2023/09/15 04:14:34;;;;;;;14.23;12.32;;;;;;;;;;10088506;28;20040;-78
2023/09/15 04:19:26;;;;;;;17.17;12.70;;;;;;;;;;10078633;28;20529;-79
2023/09/15 04:24:18;;;;;;;18.73;14.32;;;;;;;;;;10065093;28;20036;-78
2023/09/15 04:29:10;;;;;;;16.65;12.82;;;;;;;;;;10102501;28;20049;-79
2023/09/15 04:34:04;;;;;;;15.52;12.40;;;;;;;;;;10079511;28;20048;-79
2023/09/15 04:38:56;;;;;;;11.95;10.85;;;;;;;;;;10114576;28;20033;-79
2023/09/15 04:43:48;;;;;;;14.25;12.75;;;;;;;;;;10097435;28;20041;-78
2023/09/15 04:48:40;;;;;;;17.08;13.02;;;;;;;;;;10104724;28;20036;-77
2023/09/15 04:53:32;;;;;;;15.65;13.27;;;;;;;;;;10094109;28;20078;-78
2023/09/15 04:58:24;;;;;;;20.52;15.07;;;;;;;;;;10112691;28;20044;-78
2023/09/15 05:03:16;;;;;;;17.90;15.50;;;;;;;;;;10114891;28;20037;-79
2023/09/15 05:08:08;;;;;;;21.50;16.38;;;;;;;;;;10094387;28;20048;-79
2023/09/15 05:13:05;;;;;;;20.23;16.58;;;;;;;;;;10106075;28;20076;-79
2023/09/15 05:17:58;;;;;;;24.77;19.52;;;;;;;;;;10087163;28;20151;-77
2023/09/15 05:22:53;;;;;;;25.88;18.60;;;;;;;;;;10096353;28;20042;-77
2023/09/15 05:27:45;;;;;;;21.85;18.88;;;;;;;;;;10103384;28;20036;-77
2023/09/15 05:32:37;;;;;;;25.50;20.40;;;;;;;;;;10090874;28;20044;-79
2023/09/15 05:37:29;;;;;;;27.42;20.58;;;;;;;;;;10102474;28;20064;-77
2023/09/15 05:42:22;;;;;;;27.65;20.98;;;;;;;;;;10091675;28;20745;-80
2023/09/15 05:47:14;;;;;;;29.88;22.98;;;;;;;;;;10113912;28;20050;-80
2023/09/15 05:52:06;;;;;;;39.72;23.90;;;;;;;;;;10108036;28;20438;-80
2023/09/15 05:56:59;;;;;;;26.65;22.65;;;;;;;;;;10061630;28;20065;-78
2023/09/15 06:01:51;;;;;;;29.75;23.80;;;;;;;;;;10060729;28;20044;-77
2023/09/15 06:06:42;;;;;;;26.25;22.98;;;;;;;;;;10116856;28;20467;-78
2023/09/15 06:11:34;;;;;;;30.73;24.10;;;;;;;;;;10083449;28;20037;-79
2023/09/15 06:16:26;;;;;;;31.40;26.50;;;;;;;;;;10046913;28;20038;-78
2023/09/15 06:21:18;;;;;;;36.03;26.38;;;;;;;;;;10047401;28;20147;-79
2023/09/15 06:26:10;;;;;;;36.88;26.88;;;;;;;;;;10005523;28;20102;-79
2023/09/15 06:31:02;;;;;;;33.10;24.98;;;;;;;;;;10011595;28;20062;-80
2023/09/15 06:35:54;;;;;;;32.75;27.40;;;;;;;;;;10031441;28;20180;-78
2023/09/15 06:40:46;;;;;;;40.63;24.27;;;;;;;;;;10029016;28;20137;-80
2023/09/15 06:45:38;;;;;;;32.08;25.77;;;;;;;;;;9993424;28;20053;-78
2023/09/15 06:50:30;;;;;;;27.40;21.33;;;;;;;;;;10028000;28;20046;-79
2023/09/15 06:55:22;;;;;;;25.50;21.23;;;;;;;;;;10030793;28;20080;-78
2023/09/15 07:00:14;;;;;;;29.02;22.13;;;;;;;;;;9993686;28;20133;-78
2023/09/15 07:05:06;;;;;;;43.67;25.45;;;;;;;;;;10000020;28;20045;-75
2023/09/15 07:09:58;;;;;;;25.10;20.92;;;;;;;;;;10013039;28;20050;-75
2023/09/15 07:14:51;;;;;;;25.60;19.95;;;;;;;;;;9991738;28;20045;-73
2023/09/15 07:19:46;;;;;;;27.00;19.65;;;;;;;;;;10080696;28;20495;-75
2023/09/15 07:24:41;;;;;;;21.38;17.90;;;;;;;;;;10096379;28;20460;-75
2023/09/15 07:29:33;;;;;;;18.33;16.35;;;;;;;;;;10111382;28;20135;-75
2023/09/15 07:34:25;;;;;;;17.10;14.73;;;;;;;;;;10101005;28;20537;-74
2023/09/15 07:39:18;;;;;;;15.93;14.23;;;;;;;;;;10094786;28;20049;-75
2023/09/15 07:44:10;;;;;;;21.55;16.00;;;;;;;;;;10119807;28;20041;-74
2023/09/15 07:49:02;;;;;;;22.20;14.90;;;;;;;;;;10108891;28;20038;-74
2023/09/15 07:53:54;;;;;;;20.00;14.02;;;;;;;;;;10101139;28;20148;-74
2023/09/15 07:58:47;;;;;;;15.35;13.77;;;;;;;;;;10107348;28;20409;-75
2023/09/15 08:03:39;;;;;;;22.10;15.43;;;;;;;;;;10116967;28;20044;-74
2023/09/15 08:08:31;;;;;;;21.45;16.63;;;;;;;;;;10095284;28;20571;-74
2023/09/15 08:13:22;;;;;;;17.13;15.35;;;;;;;;;;10075276;28;20045;-76
2023/09/15 08:18:14;;;;;;;19.45;15.50;;;;;;;;;;10098941;28;20049;-75
2023/09/15 08:23:06;;;;;;;17.27;15.70;;;;;;;;;;10118476;28;20107;-74
2023/09/15 08:27:59;;;;;;;17.60;15.10;;;;;;;;;;10111785;28;20075;-74
2023/09/15 08:32:51;;;;;;;20.40;17.27;;;;;;;;;;10114907;28;20096;-73
2023/09/15 08:37:43;;;;;;;20.55;18.45;;;;;;;;;;10089292;28;20048;-74
2023/09/15 08:42:35;;;;;;;19.60;17.83;;;;;;;;;;10092189;28;20087;-74
2023/09/15 08:47:31;;;;;;;20.13;18.23;;;;;;;;;;10085318;28;20084;-74
2023/09/15 08:52:23;;;;;;;21.05;18.85;;;;;;;;;;10094837;28;20049;-74
2023/09/15 08:57:16;;;;;;;27.95;20.85;;;;;;;;;;10078507;28;20140;-75
2023/09/15 09:02:10;;;;;;;19.33;17.40;;;;;;;;;;10073948;28;20052;-74
2023/09/15 09:07:03;;;;;;;17.27;14.35;;;;;;;;;;10048143;28;20049;-73
2023/09/15 09:11:55;;;;;;;10.35;9.32;;;;;;;;;;10046837;28;20041;-73
2023/09/15 09:16:47;;;;;;;13.63;12.32;;;;;;;;;;10051957;28;20062;-73
2023/09/15 09:21:39;;;;;;;15.93;11.35;;;;;;;;;;10092488;28;20143;-74
2023/09/15 09:26:31;;;;;;;14.02;10.02;;;;;;;;;;10105252;28;20387;-74
2023/09/15 09:31:25;;;;;;;14.00;11.63;;;;;;;;;;10101855;28;20087;-73
2023/09/15 09:36:18;;;;;;;11.63;10.52;;;;;;;;;;10108968;28;20475;-74
2023/09/15 09:41:11;;;;;;;13.77;11.60;;;;;;;;;;10110582;28;20049;-74
2023/09/15 09:46:03;;;;;;;16.95;15.15;;;;;;;;;;10073374;28;20067;-75
2023/09/15 09:50:55;;;;;;;17.23;15.45;;;;;;;;;;10098547;28;20057;-74
2023/09/15 09:55:47;;;;;;;26.70;15.40;;;;;;;;;;10099218;28;20045;-75
2023/09/15 10:00:39;;;;;;;15.48;13.90;;;;;;;;;;10078957;28;20065;-74
2023/09/15 10:05:33;;;;;;;17.00;15.05;;;;;;;;;;10064844;28;20145;-75
2023/09/15 10:10:26;;;;;;;16.92;15.27;;;;;;;;;;10103624;28;20045;-74
2023/09/15 10:15:18;;;;;;;17.15;15.55;;;;;;;;;;10083142;28;20373;-75
2023/09/15 10:20:11;;;;;;;17.65;15.73;;;;;;;;;;10092135;28;20048;-75
2023/09/15 10:25:03;;;;;;;17.73;15.93;;;;;;;;;;10098026;28;20162;-74
2023/09/15 10:30:04;;;;;;;16.20;14.65;;;;;;;;;;10118184;28;20526;-74
2023/09/15 10:34:56;;;;;;;19.95;17.88;;;;;;;;;;10118582;28;20059;-74
2023/09/15 10:39:57;;;;;;;17.77;16.13;;;;;;;;;;10098696;28;20072;-75
2023/09/15 10:44:50;;;;;;;17.50;15.75;;;;;;;;;;10100175;28;20461;-74
2023/09/15 10:49:52;;;;;;;19.27;14.82;;;;;;;;;;10111736;28;20554;-75
2023/09/15 10:54:45;;;;;;;18.13;16.33;;;;;;;;;;10133748;28;20535;-75
2023/09/15 10:59:37;;;;;;;20.08;18.08;;;;;;;;;;10059439;28;20045;-75
2023/09/15 11:04:29;;;;;;;22.17;18.58;;;;;;;;;;10060539;28;20045;-75
2023/09/15 11:09:25;;;;;;;17.42;15.70;;;;;;;;;;10065278;28;20057;-75
2023/09/15 11:14:22;;;;;;;19.23;16.38;;;;;;;;;;10074256;28;20446;-75
2023/09/15 11:19:15;;;;;;;16.17;14.57;;;;;;;;;;10098853;28;20045;-74
2023/09/15 11:24:11;;;;;;;16.20;14.50;;;;;;;;;;10083725;28;20136;-75
2023/09/15 11:29:07;;;;;;;14.52;13.02;;;;;;;;;;10075685;28;20384;-74
2023/09/15 11:33:59;;;;;;;16.10;13.10;;;;;;;;;;10067184;28;20073;-75
2023/09/15 11:38:52;;;;;;;14.43;13.02;;;;;;;;;;10084764;28;20049;-73
2023/09/15 11:43:44;;;;;;;16.73;13.65;;;;;;;;;;10109709;28;20075;-75
2023/09/15 11:48:38;;;;;;;14.63;13.18;;;;;;;;;;10087035;28;20071;-75
2023/09/15 11:53:31;;;;;;;13.27;11.88;;;;;;;;;;10066584;28;20046;-75
2023/09/15 11:58:24;;;;;;;14.38;13.05;;;;;;;;;;10073302;28;20049;-73
2023/09/15 12:03:18;;;;;;;12.93;11.82;;;;;;;;;;10117147;28;20060;-74
2023/09/15 12:08:11;;;;;;;13.05;11.98;;;;;;;;;;10124206;28;20052;-75
2023/09/15 12:13:03;;;;;;;14.32;13.13;;;;;;;;;;10088744;28;20370;-74
2023/09/15 12:17:56;;;;;;;12.63;11.43;;;;;;;;;;10106274;28;20041;-74
2023/09/15 12:22:48;;;;;;;10.27;9.27;;;;;;;;;;10110186;28;20047;-73
2023/09/15 12:27:41;;;;;;;12.95;11.80;;;;;;;;;;10094803;28;20071;-73
2023/09/15 12:32:34;;;;;;;13.65;12.45;;;;;;;;;;10130328;28;20049;-74
2023/09/15 12:37:27;;;;;;;15.02;13.73;;;;;;;;;;10112207;28;20123;-74
2023/09/15 12:42:18;;;;;;;13.77;12.57;;;;;;;;;;10124481;28;20094;-74
2023/09/15 12:47:11;;;;;;;11.30;10.38;;;;;;;;;;10103719;28;20100;-73
2023/09/15 12:52:03;;;;;;;9.57;8.77;;;;;;;;;;10092858;28;20055;-74
2023/09/15 12:56:56;;;;;;;10.63;9.52;;;;;;;;;;10075557;28;20041;-74
2023/09/15 13:01:48;;;;;;;9.80;8.90;;;;;;;;;;10067043;28;20468;-74
2023/09/15 13:06:40;;;;;;;9.73;8.75;;;;;;;;;;10078296;28;20079;-75
2023/09/15 13:11:32;;;;;;;8.20;7.40;;;;;;;;;;10074215;28;20489;-74
2023/09/15 13:16:24;;;;;;;7.53;6.82;;;;;;;;;;10092534;28;20356;-74
2023/09/15 13:21:16;;;;;;;8.02;6.50;;;;;;;;;;10073138;28;20441;-74
2023/09/15 13:26:09;;;;;;;7.15;6.15;;;;;;;;;;10058738;28;20033;-73
2023/09/15 13:31:01;;;;;;;6.28;5.38;;;;;;;;;;10061341;28;20457;-73
2023/09/15 13:35:53;;;;;;;6.45;5.28;;;;;;;;;;10064035;28;20046;-73
2023/09/15 13:40:45;;;;;;;5.57;5.07;;;;;;;;;;10062677;28;20140;-74
2023/09/15 13:45:38;;;;;;;5.18;4.68;;;;;;;;;;10065433;28;20049;-74
2023/09/15 13:50:30;;;;;;;5.30;4.78;;;;;;;;;;10079653;28;20067;-73
2023/09/15 13:55:23;;;;;;;9.90;5.80;;;;;;;;;;10139828;28;20071;-73
2023/09/15 14:00:29;;;;;;;12.98;4.60;;;;;;;;;;10087253;28;20128;-74
2023/09/15 14:05:22;;;;;;;4.63;4.22;;;;;;;;;;10095465;28;20124;-74
2023/09/15 14:10:14;;;;;;;4.85;4.00;;;;;;;;;;10119826;28;20078;-71
2023/09/15 14:15:09;;;;;;;5.57;4.28;;;;;;;;;;10091006;28;20048;-74
2023/09/15 14:20:01;;;;;;;4.15;3.85;;;;;;;;;;10099925;28;20059;-73
2023/09/15 14:24:53;;;;;;;5.22;3.90;;;;;;;;;;10092661;28;20042;-72
2023/09/15 14:29:45;;;;;;;7.20;3.17;;;;;;;;;;10100054;28;20522;-72
2023/09/15 14:34:41;;;;;;;4.30;3.90;;;;;;;;;;10099652;28;20133;-76
2023/09/15 14:39:34;;;;;;;4.50;3.47;;;;;;;;;;10101529;28;20037;-74
2023/09/15 14:44:26;;;;;;;3.70;3.17;;;;;;;;;;10123474;28;20055;-73
2023/09/15 14:49:18;;;;;;;9.25;3.67;;;;;;;;;;10090845;28;20120;-74
2023/09/15 14:54:10;;;;;;;3.40;3.10;;;;;;;;;;10096093;28;20040;-75
2023/09/15 14:59:02;;;;;;;6.03;3.17;;;;;;;;;;10125703;28;20052;-72
2023/09/15 15:03:54;;;;;;;6.72;3.55;;;;;;;;;;10084348;28;20041;-73
2023/09/15 15:08:46;;;;;;;3.63;2.97;;;;;;;;;;10088295;28;20056;-74
2023/09/15 15:13:38;;;;;;;4.78;3.80;;;;;;;;;;10107087;28;20076;-73
2023/09/15 15:18:31;;;;;;;3.78;3.08;;;;;;;;;;10117607;28;20482;-73
2023/09/15 15:23:23;;;;;;;2.40;2.20;;;;;;;;;;10120838;28;20053;-74
2023/09/15 15:28:15;;;;;;;3.70;2.08;;;;;;;;;;10121741;28;20052;-74
2023/09/15 15:33:07;;;;;;;2.75;2.55;;;;;;;;;;10117487;28;20139;-72
2023/09/15 15:38:00;;;;;;;4.30;2.78;;;;;;;;;;10130352;28;20048;-73
2023/09/15 15:42:55;;;;;;;4.38;3.15;;;;;;;;;;10131834;28;20040;-72
2023/09/15 15:47:47;;;;;;;3.55;3.05;;;;;;;;;;10124190;28;20037;-73
2023/09/15 15:52:39;;;;;;;4.65;4.05;;;;;;;;;;10102677;28;20467;-73
2023/09/15 15:57:31;;;;;;;3.70;3.33;;;;;;;;;;10102495;28;20180;-74
2023/09/15 16:02:23;;;;;;;3.28;2.58;;;;;;;;;;10084087;28;20048;-74
2023/09/15 16:07:15;;;;;;;4.97;3.10;;;;;;;;;;10101352;28;20044;-73
2023/09/15 16:12:07;;;;;;;4.65;3.30;;;;;;;;;;10084588;28;20105;-73
2023/09/15 16:16:59;;;;;;;3.83;2.72;;;;;;;;;;10096281;28;20053;-73
2023/09/15 16:21:51;;;;;;;5.38;3.67;;;;;;;;;;10075482;28;20440;-73
2023/09/15 16:26:43;;;;;;;3.22;3.00;;;;;;;;;;10112670;28;20482;-73
2023/09/15 16:31:35;;;;;;;7.05;3.45;;;;;;;;;;10117635;28;20048;-73
2023/09/15 16:36:27;;;;;;;4.22;3.30;;;;;;;;;;10146738;28;20106;-73
2023/09/15 16:41:19;;;;;;;4.90;3.58;;;;;;;;;;10094870;28;20124;-73
2023/09/15 16:46:10;;;;;;;10.90;3.55;;;;;;;;;;10072541;28;20073;-73
2023/09/15 16:51:02;;;;;;;6.85;3.05;;;;;;;;;;10068838;28;20057;-72
2023/09/15 16:55:55;;;;;;;9.13;3.63;;;;;;;;;;10066681;28;20045;-71
2023/09/15 17:00:47;;;;;;;3.63;3.00;;;;;;;;;;10085430;28;20389;-74
2023/09/15 17:05:39;;;;;;;6.93;3.70;;;;;;;;;;10089056;28;20050;-73
2023/09/15 17:10:32;;;;;;;4.97;3.33;;;;;;;;;;10078485;28;20050;-72
2023/09/15 17:15:23;;;;;;;4.38;3.97;;;;;;;;;;10102467;28;20061;-77
2023/09/15 17:20:15;;;;;;;5.15;3.85;;;;;;;;;;10058465;28;20132;-76
2023/09/15 17:25:07;;;;;;;6.00;3.33;;;;;;;;;;10057646;28;20095;-77
2023/09/15 17:29:59;;;;;;;5.00;3.75;;;;;;;;;;10059350;28;20041;-74
2023/09/15 17:34:52;;;;;;;4.80;3.10;;;;;;;;;;10093939;28;20041;-70
2023/09/15 17:39:48;;;;;;;7.28;4.25;;;;;;;;;;10086838;28;20045;-70
2023/09/15 17:44:40;;;;;;;8.35;4.03;;;;;;;;;;10109161;28;20056;-70
2023/09/15 17:49:33;;;;;;;4.72;4.32;;;;;;;;;;10091838;28;20259;-69
2023/09/15 17:54:27;;;;;;;6.68;3.88;;;;;;;;;;10117029;28;20497;-70
2023/09/15 17:59:21;;;;;;;4.68;3.95;;;;;;;;;;10055653;28;20063;-70
2023/09/15 18:04:14;;;;;;;6.10;4.75;;;;;;;;;;10130703;28;20086;-70
2023/09/15 18:09:06;;;;;;;4.07;3.78;;;;;;;;;;10084058;28;20566;-71
2023/09/15 18:13:58;;;;;;;6.00;5.45;;;;;;;;;;10111966;28;20128;-72
2023/09/15 18:18:50;;;;;;;5.90;5.18;;;;;;;;;;10133091;28;20045;-70
2023/09/15 18:23:44;;;;;;;11.38;4.80;;;;;;;;;;10120722;28;20051;-69
2023/09/15 18:28:38;;;;;;;6.05;5.45;;;;;;;;;;10107556;28;20520;-74
2023/09/15 18:33:31;;;;;;;6.88;5.35;;;;;;;;;;10116498;28;20141;-72
2023/09/15 18:38:24;;;;;;;6.22;5.63;;;;;;;;;;10088850;28;20045;-70
2023/09/15 18:43:16;;;;;;;9.65;6.10;;;;;;;;;;10079574;28;20072;-70
2023/09/15 18:48:08;;;;;;;7.88;7.03;;;;;;;;;;10080167;28;20045;-71
2023/09/15 18:53:01;;;;;;;7.60;6.90;;;;;;;;;;10080733;28;20045;-70
2023/09/15 18:57:53;;;;;;;8.15;7.35;;;;;;;;;;10080119;28;20044;-70
2023/09/15 19:02:45;;;;;;;8.15;7.35;;;;;;;;;;10084073;28;20156;-68
2023/09/15 19:07:37;;;;;;;9.70;8.55;;;;;;;;;;10077533;28;20459;-70
2023/09/15 19:12:30;;;;;;;12.85;9.63;;;;;;;;;;10093963;28;20119;-71
2023/09/15 19:17:22;;;;;;;12.60;9.23;;;;;;;;;;10082938;28;20052;-71
2023/09/15 19:22:14;;;;;;;8.25;7.50;;;;;;;;;;10106307;28;20045;-70
2023/09/15 19:27:06;;;;;;;10.80;9.80;;;;;;;;;;10100700;28;20057;-71
2023/09/15 19:31:58;;;;;;;10.57;9.55;;;;;;;;;;10101241;28;20437;-70
2023/09/15 19:36:50;;;;;;;10.63;9.70;;;;;;;;;;10107517;28;20056;-71
2023/09/15 19:41:42;;;;;;;10.73;9.55;;;;;;;;;;10068363;28;20056;-70
2023/09/15 19:46:35;;;;;;;12.20;9.57;;;;;;;;;;10079705;28;20045;-71
2023/09/15 19:51:30;;;;;;;11.60;10.20;;;;;;;;;;10080294;28;20104;-70
2023/09/15 19:56:23;;;;;;;14.13;10.35;;;;;;;;;;10063823;28;20403;-71
2023/09/15 20:01:15;;;;;;;16.90;11.80;;;;;;;;;;10088000;28;20455;-72
2023/09/15 20:06:07;;;;;;;13.07;10.63;;;;;;;;;;10099558;28;20045;-71
2023/09/15 20:10:59;;;;;;;18.55;12.38;;;;;;;;;;10101357;28;20383;-73
2023/09/15 20:15:52;;;;;;;13.35;11.55;;;;;;;;;;10093844;28;20044;-71
2023/09/15 20:20:44;;;;;;;11.95;10.68;;;;;;;;;;10097919;28;20506;-71
2023/09/15 20:25:37;;;;;;;15.70;9.48;;;;;;;;;;10089543;28;20144;-71
2023/09/15 20:30:29;;;;;;;13.90;12.30;;;;;;;;;;10115105;28;20435;-70
2023/09/15 20:35:21;;;;;;;11.93;10.75;;;;;;;;;;10100223;28;20463;-70
2023/09/15 20:40:13;;;;;;;12.93;11.07;;;;;;;;;;10103905;28;20107;-70
2023/09/15 20:45:05;;;;;;;12.77;10.88;;;;;;;;;;10095964;28;20084;-72
2023/09/15 20:49:57;;;;;;;13.90;12.55;;;;;;;;;;10106971;28;20037;-69
2023/09/15 20:54:50;;;;;;;19.27;12.77;;;;;;;;;;10092624;28;20045;-71
2023/09/15 20:59:42;;;;;;;22.65;17.30;;;;;;;;;;10093630;28;20466;-67
2023/09/15 21:04:34;;;;;;;17.77;16.00;;;;;;;;;;10106456;28;20049;-71
2023/09/15 21:09:27;;;;;;;19.20;16.65;;;;;;;;;;10088663;28;20348;-72
2023/09/15 21:14:19;;;;;;;21.40;19.15;;;;;;;;;;10084931;28;20036;-71
2023/09/15 21:19:12;;;;;;;22.58;19.20;;;;;;;;;;10106698;28;20060;-72
2023/09/15 21:24:04;;;;;;;22.05;19.20;;;;;;;;;;10094156;28;20053;-71
2023/09/15 21:28:56;;;;;;;30.02;19.67;;;;;;;;;;10111459;28;20136;-69
2023/09/15 21:33:48;;;;;;;25.05;20.35;;;;;;;;;;10076369;28;20052;-80
2023/09/15 21:38:40;;;;;;;21.67;19.45;;;;;;;;;;10108775;28;20440;-82
2023/09/15 21:43:34;;;;;;;20.33;17.60;;;;;;;;;;10096366;28;20060;-81
2023/09/15 21:48:26;;;;;;;20.33;17.52;;;;;;;;;;10099744;28;20663;-81
2023/09/15 21:53:21;;;;;;;19.50;17.35;;;;;;;;;;10108861;28;20057;-81
2023/09/15 21:58:13;;;;;;;22.17;18.17;;;;;;;;;;10087560;28;20475;-83
2023/09/15 22:03:05;;;;;;;21.15;18.88;;;;;;;;;;10077394;28;20068;-82
2023/09/15 22:08:05;;;;;;;29.80;20.50;;;;;;;;;;10082588;28;20132;-81
2023/09/15 22:12:57;;;;;;;32.65;25.75;;;;;;;;;;10110966;28;20033;-80
2023/09/15 22:17:53;;;;;;;29.00;25.90;;;;;;;;;;10094416;28;20052;-80
2023/09/15 22:22:51;;;;;;;34.45;27.23;;;;;;;;;;10095916;28;20147;-80
2023/09/15 22:27:44;;;;;;;35.45;29.27;;;;;;;;;;10089110;28;20413;-80
2023/09/15 22:32:37;;;;;;;34.13;27.13;;;;;;;;;;10086724;28;20527;-81
2023/09/15 22:37:29;;;;;;;34.75;28.70;;;;;;;;;;10085259;28;20057;-82
2023/09/15 22:42:21;;;;;;;28.85;25.73;;;;;;;;;;10088509;28;20431;-80
2023/09/15 22:47:13;;;;;;;26.73;23.65;;;;;;;;;;10101188;28;20080;-80
2023/09/15 22:52:06;;;;;;;24.70;20.60;;;;;;;;;;10083666;28;20040;-81
2023/09/15 22:57:00;;;;;;;20.10;17.77;;;;;;;;;;10109206;28;20080;-82
2023/09/15 23:01:52;;;;;;;17.58;15.25;;;;;;;;;;10110856;28;20102;-84
2023/09/15 23:06:44;;;;;;;16.75;15.05;;;;;;;;;;10074930;28;20148;-83
2023/09/15 23:11:36;;;;;;;17.38;15.30;;;;;;;;;;10088685;28;20045;-82
2023/09/15 23:16:29;;;;;;;17.08;13.13;;;;;;;;;;10090858;28;20045;-80
2023/09/15 23:21:21;;;;;;;19.85;13.82;;;;;;;;;;10070779;28;20057;-85
2023/09/15 23:26:13;;;;;;;19.95;13.20;;;;;;;;;;10068722;28;20038;-85
2023/09/15 23:31:05;;;;;;;15.38;13.75;;;;;;;;;;10069721;28;20104;-82
2023/09/15 23:36:04;;;;;;;14.65;13.18;;;;;;;;;;10068291;28;20049;-84
2023/09/15 23:40:56;;;;;;;13.77;12.32;;;;;;;;;;10067822;28;20427;-85
2023/09/15 23:45:48;;;;;;;16.50;14.43;;;;;;;;;;10065271;28;20099;-85
2023/09/15 23:50:41;;;;;;;14.40;12.75;;;;;;;;;;10065913;28;20083;-81
2023/09/15 23:55:35;;;;;;;14.60;11.98;;;;;;;;;;10068059;28;20046;-84
